createdAt,value
2018-09-15T00:02:18.727Z,76.46
2018-09-15T00:04:48.610Z,75.26
2018-09-15T00:07:18.389Z,75.13
2018-09-15T00:09:48.079Z,75.83
2018-09-15T00:12:17.697Z,76.03
2018-09-15T00:14:47.370Z,75.29
2018-09-15T00:17:17.135Z,74.94
2018-09-15T00:19:47.489Z,74.93
2018-09-15T00:22:17.210Z,74.38
2018-09-15T00:24:47.145Z,73.98
2018-09-15T00:27:16.953Z,74.45
2018-09-15T00:29:46.709Z,73.44
2018-09-15T00:32:16.410Z,73.44
2018-09-15T00:34:46.149Z,73.28
2018-09-15T00:37:15.843Z,74.32
2018-09-15T00:39:45.479Z,73.85
2018-09-15T00:42:15.186Z,74.55
2018-09-15T00:44:44.837Z,74.82
2018-09-15T00:47:14.515Z,74.96
2018-09-15T00:49:44.242Z,75.34
2018-09-15T00:52:13.926Z,75.46
2018-09-15T00:54:43.663Z,75.80
2018-09-15T00:57:13.345Z,77.08
2018-09-15T00:59:43.080Z,77.63
2018-09-15T01:02:12.813Z,78.14
2018-09-15T01:04:42.612Z,78.83
2018-09-15T01:07:12.353Z,79.20
2018-09-15T01:09:42.120Z,78.86
2018-09-15T01:12:11.805Z,78.97
2018-09-15T01:14:41.471Z,79.41
2018-09-15T01:17:11.183Z,80.32
2018-09-15T01:19:41.050Z,81.68
2018-09-15T01:22:10.773Z,81.84
2018-09-15T01:24:40.535Z,81.68
2018-09-15T01:27:10.286Z,82.59
2018-09-15T01:29:40.036Z,82.03
2018-09-15T01:32:10.016Z,83.55
2018-09-15T01:34:39.690Z,84.33
2018-09-15T01:37:09.496Z,82.94
2018-09-15T01:39:39.299Z,83.07
2018-09-15T01:42:09.009Z,83.37
2018-09-15T01:44:38.820Z,82.85
2018-09-15T01:47:08.701Z,83.08
2018-09-15T01:49:38.506Z,84.04
2018-09-15T01:52:08.295Z,84.33
2018-09-15T01:54:38.069Z,85.72
2018-09-15T01:57:08.100Z,84.83
2018-09-15T01:59:37.908Z,86.43
2018-09-15T02:02:07.722Z,87.06
2018-09-15T02:04:37.444Z,87.16
2018-09-15T02:07:07.284Z,87.65
2018-09-15T02:09:37.151Z,87.82
2018-09-15T02:12:07.033Z,88.26
2018-09-15T02:14:36.722Z,88.13
2018-09-15T02:17:07.113Z,88.10
2018-09-15T02:19:36.788Z,89.18
2018-09-15T02:22:06.451Z,88.81
2018-09-15T02:24:36.340Z,89.99
2018-09-15T02:27:06.440Z,89.75
2018-09-15T02:29:36.094Z,89.30
2018-09-15T02:32:05.798Z,89.03
2018-09-15T02:34:35.445Z,88.57
2018-09-15T02:37:05.489Z,89.03
2018-09-15T02:39:35.181Z,87.99
2018-09-15T02:42:04.974Z,87.79
2018-09-15T02:44:34.678Z,86.96
2018-09-15T02:47:04.382Z,88.10
2018-09-15T02:49:34.054Z,87.01
2018-09-15T02:52:03.781Z,88.08
2018-09-15T02:54:33.484Z,87.96
2018-09-15T02:57:03.304Z,89.15
2018-09-15T02:59:33.647Z,89.48
2018-09-15T03:02:03.269Z,89.74
2018-09-15T03:04:32.966Z,90.50
2018-09-15T03:07:02.700Z,90.11
2018-09-15T03:09:32.510Z,90.53
2018-09-15T03:12:02.244Z,90.66
2018-09-15T03:14:31.932Z,90.20
2018-09-15T03:17:01.739Z,90.07
2018-09-15T03:19:31.406Z,89.69
2018-09-15T03:22:01.173Z,88.96
2018-09-15T03:24:30.995Z,88.69
2018-09-15T03:27:00.716Z,88.08
2018-09-15T03:29:30.509Z,87.44
2018-09-15T03:32:00.314Z,88.06
2018-09-15T03:34:30.053Z,88.38
2018-09-15T03:36:59.775Z,88.45
2018-09-15T03:39:29.633Z,89.06
2018-09-15T03:41:59.594Z,89.62
2018-09-15T03:44:29.147Z,89.98
2018-09-15T03:46:59.007Z,90.08
2018-09-15T03:49:28.873Z,89.40
2018-09-15T03:51:58.577Z,89.20
2018-09-15T03:54:28.284Z,88.53
2018-09-15T03:56:57.954Z,88.71
2018-09-15T03:59:27.653Z,88.79
2018-09-15T04:01:57.365Z,89.06
2018-09-15T04:04:27.050Z,89.86
2018-09-15T04:06:56.779Z,89.48
2018-09-15T04:09:26.534Z,89.74
2018-09-15T04:11:56.221Z,90.26
2018-09-15T04:14:26.009Z,90.75
2018-09-15T04:16:55.658Z,89.91
2018-09-15T04:19:25.379Z,90.32
2018-09-15T04:21:55.169Z,90.38
2018-09-15T04:24:24.844Z,90.41
2018-09-15T04:26:54.566Z,90.81
2018-09-15T04:29:24.196Z,90.76
2018-09-15T04:31:53.909Z,91.24
2018-09-15T04:34:23.608Z,91.62
2018-09-15T04:36:54.090Z,91.58
2018-09-15T04:39:23.753Z,92.46
2018-09-15T04:41:53.472Z,92.62
2018-09-15T04:44:23.082Z,92.74
2018-09-15T04:46:52.969Z,92.62
2018-09-15T04:49:22.638Z,92.72
2018-09-15T04:51:52.405Z,93.08
2018-09-15T04:54:22.065Z,93.42
2018-09-15T04:56:51.779Z,93.26
2018-09-15T04:59:21.484Z,93.48
2018-09-15T05:01:51.167Z,93.45
2018-09-15T05:04:20.825Z,94.15
2018-09-15T05:06:50.841Z,93.58
2018-09-15T05:09:20.681Z,93.79
2018-09-15T05:11:50.329Z,94.57
2018-09-15T05:14:19.950Z,95.15
2018-09-15T05:16:49.709Z,95.02
2018-09-15T05:19:19.393Z,95.18
2018-09-15T05:21:49.246Z,95.75
2018-09-15T05:24:19.008Z,95.85
2018-09-15T05:26:48.666Z,95.93
2018-09-15T05:29:18.321Z,95.99
2018-09-15T05:31:48.049Z,96.03
2018-09-15T05:34:17.939Z,96.58
2018-09-15T05:36:47.597Z,96.22
2018-09-15T05:39:17.310Z,96.10
2018-09-15T05:41:47.010Z,95.57
2018-09-15T05:44:16.686Z,95.08
2018-09-15T05:46:46.313Z,95.26
2018-09-15T05:49:16.497Z,95.26
2018-09-15T05:51:46.140Z,95.26
2018-09-15T05:54:16.237Z,94.29
2018-09-15T05:56:46.052Z,94.68
2018-09-15T05:59:16.623Z,94.42
2018-09-15T06:01:46.333Z,94.32
2018-09-15T06:04:16.025Z,94.03
2018-09-15T06:06:45.960Z,93.40
2018-09-15T06:09:15.600Z,93.09
2018-09-15T06:11:45.318Z,92.98
2018-09-15T06:14:15.371Z,92.66
2018-09-15T06:16:45.011Z,92.70
2018-09-15T06:19:14.900Z,92.00
2018-09-15T06:21:44.720Z,91.36
2018-09-15T06:24:14.584Z,91.39
2018-09-15T06:26:44.430Z,92.02
2018-09-15T06:29:14.097Z,91.05
2018-09-15T06:31:43.888Z,91.11
2018-09-15T06:34:13.673Z,90.32
2018-09-15T06:36:43.522Z,89.97
2018-09-15T06:39:13.219Z,89.81
2018-09-15T06:41:42.942Z,89.35
2018-09-15T06:44:12.980Z,88.79
2018-09-15T06:46:42.641Z,89.33
2018-09-15T06:49:12.397Z,88.62
2018-09-15T06:51:42.055Z,88.51
2018-09-15T06:54:11.871Z,87.83
2018-09-15T06:56:41.574Z,87.17
2018-09-15T06:59:11.312Z,87.08
2018-09-15T07:01:41.753Z,87.42
2018-09-15T07:04:13.048Z,87.89
2018-09-15T07:06:43.092Z,87.97
2018-09-15T07:09:15.053Z,85.12
2018-09-15T07:11:45.130Z,81.90
2018-09-15T07:14:15.320Z,80.71
2018-09-15T07:16:45.438Z,81.23
2018-09-15T07:19:15.552Z,81.37
2018-09-15T07:21:45.259Z,82.72
2018-09-15T07:24:14.985Z,82.42
2018-09-15T07:26:44.665Z,82.15
2018-09-15T07:29:14.488Z,81.30
2018-09-15T07:31:44.523Z,81.20
2018-09-15T07:34:14.174Z,81.78
2018-09-15T07:36:44.038Z,82.33
2018-09-15T07:39:13.874Z,82.00
2018-09-15T07:41:43.680Z,81.19
2018-09-15T07:44:13.432Z,80.83
2018-09-15T07:46:43.195Z,78.78
2018-09-15T07:49:12.853Z,73.18
2018-09-15T07:51:42.578Z,75.14
2018-09-15T07:54:12.429Z,76.13
2018-09-15T07:56:42.149Z,74.41
2018-09-15T07:59:11.795Z,74.72
2018-09-15T08:01:41.494Z,76.67
2018-09-15T08:04:11.283Z,76.30
2018-09-15T08:06:41.115Z,76.34
2018-09-15T08:09:10.822Z,75.62
2018-09-15T08:11:40.505Z,74.21
2018-09-15T08:14:10.440Z,72.85
2018-09-15T08:16:40.313Z,72.90
2018-09-15T08:19:09.981Z,72.94
2018-09-15T08:21:39.666Z,74.59
2018-09-15T08:24:09.415Z,74.46
2018-09-15T08:26:39.178Z,74.08
2018-09-15T08:29:08.926Z,73.88
2018-09-15T08:31:38.736Z,72.56
2018-09-15T08:34:08.609Z,72.43
2018-09-15T08:36:38.612Z,73.12
2018-09-15T08:39:09.897Z,72.38
2018-09-15T08:41:39.779Z,70.83
2018-09-15T08:44:09.450Z,67.41
2018-09-15T08:46:39.143Z,65.52
2018-09-15T08:49:11.867Z,66.09
2018-09-15T08:51:43.173Z,65.00
2018-09-15T08:54:15.002Z,63.58
2018-09-15T08:56:45.105Z,62.86
2018-09-15T08:59:15.218Z,65.59
2018-09-15T09:01:45.012Z,68.71
2018-09-15T09:04:14.695Z,69.07
2018-09-15T09:06:44.400Z,69.85
2018-09-15T09:09:14.197Z,70.19
2018-09-15T09:11:43.986Z,71.89
2018-09-15T09:14:13.761Z,70.41
2018-09-15T09:16:43.444Z,69.73
2018-09-15T09:19:13.179Z,63.95
2018-09-15T09:21:42.894Z,60.51
2018-09-15T09:24:12.575Z,53.00
2018-09-15T09:26:42.398Z,51.35
2018-09-15T09:29:12.007Z,52.68
2018-09-15T09:31:41.641Z,54.66
2018-09-15T09:34:11.513Z,55.53
2018-09-15T09:36:41.251Z,54.74
2018-09-15T09:39:12.815Z,58.94
2018-09-15T09:41:43.296Z,57.71
2018-09-15T09:44:12.960Z,56.65
2018-09-15T09:46:42.633Z,55.05
2018-09-15T09:49:12.276Z,49.94
2018-09-15T09:51:41.977Z,52.44
2018-09-15T09:54:11.646Z,46.67
2018-09-15T09:56:41.438Z,45.75
2018-09-15T09:59:11.295Z,44.42
2018-09-15T10:01:46.073Z,45.38
2018-09-15T10:04:15.821Z,42.86
2018-09-15T10:06:45.668Z,46.77
2018-09-15T10:09:15.410Z,52.71
2018-09-15T10:11:45.246Z,57.30
2018-09-15T10:14:14.925Z,58.10
2018-09-15T10:16:44.799Z,60.70
2018-09-15T10:19:14.566Z,60.99
2018-09-15T10:21:44.235Z,62.26
2018-09-15T10:24:14.019Z,62.43
2018-09-15T10:26:43.877Z,63.74
2018-09-15T10:29:13.809Z,62.51
2018-09-15T10:31:43.481Z,55.37
2018-09-15T10:34:13.258Z,52.66
2018-09-15T10:36:42.952Z,53.32
2018-09-15T10:39:12.686Z,51.54
2018-09-15T10:41:42.434Z,45.60
2018-09-15T10:44:12.132Z,47.24
2018-09-15T10:46:42.048Z,49.25
2018-09-15T10:49:16.440Z,50.31
2018-09-15T10:51:46.111Z,50.15
2018-09-15T10:54:15.848Z,51.20
2018-09-15T10:56:45.516Z,48.96
2018-09-15T10:59:15.228Z,46.64
2018-09-15T11:01:44.984Z,43.85
2018-09-15T11:04:14.885Z,44.61
2018-09-15T11:06:44.737Z,42.33
2018-09-15T11:09:14.572Z,39.81
2018-09-15T11:11:44.573Z,39.06
2018-09-15T11:14:14.330Z,40.65
2018-09-15T11:16:44.119Z,39.72
2018-09-15T11:19:14.233Z,39.31
2018-09-15T11:21:43.918Z,40.97
2018-09-15T11:24:13.659Z,45.96
2018-09-15T11:26:43.576Z,45.32
2018-09-15T11:29:13.397Z,44.14
2018-09-15T11:31:43.467Z,44.97
2018-09-15T11:34:13.488Z,46.72
2018-09-15T11:36:43.205Z,43.69
2018-09-15T11:39:13.566Z,40.77
2018-09-15T11:41:43.282Z,41.94
2018-09-15T11:44:13.146Z,37.84
2018-09-15T11:46:42.880Z,38.03
2018-09-15T11:49:12.648Z,38.47
2018-09-15T11:51:42.472Z,38.11
2018-09-15T11:54:12.300Z,39.85
2018-09-15T11:56:42.014Z,40.61
2018-09-15T11:59:11.851Z,40.27
2018-09-15T12:01:41.742Z,36.84
2018-09-15T12:04:11.450Z,38.40
2018-09-15T12:06:41.253Z,37.25
2018-09-15T12:09:11.152Z,39.41
2018-09-15T12:11:40.834Z,42.15
2018-09-15T12:14:10.735Z,43.85
2018-09-15T12:16:40.406Z,45.06
2018-09-15T12:19:10.250Z,45.40
2018-09-15T12:21:39.957Z,45.15
2018-09-15T12:24:09.651Z,43.46
2018-09-15T12:26:39.340Z,43.19
2018-09-15T12:29:09.078Z,41.45
2018-09-15T12:31:38.789Z,38.43
2018-09-15T12:34:08.506Z,36.78
2018-09-15T12:36:38.371Z,37.76
2018-09-15T12:39:09.613Z,36.87
2018-09-15T12:41:39.405Z,35.93
2018-09-15T12:44:09.153Z,36.75
2018-09-15T12:46:38.929Z,37.13
2018-09-15T12:49:08.693Z,41.13
2018-09-15T12:51:38.394Z,41.49
2018-09-15T12:54:08.396Z,42.36
2018-09-15T12:56:38.256Z,43.22
2018-09-15T12:59:07.926Z,45.51
2018-09-15T13:01:37.684Z,44.50
2018-09-15T13:04:07.542Z,42.07
2018-09-15T13:06:37.233Z,42.43
2018-09-15T13:09:11.108Z,42.27
2018-09-15T13:11:40.832Z,42.38
2018-09-15T13:14:10.527Z,41.49
2018-09-15T13:16:40.192Z,42.34
2018-09-15T13:19:10.084Z,43.75
2018-09-15T13:21:39.932Z,43.93
2018-09-15T13:24:09.675Z,44.25
2018-09-15T13:26:39.426Z,42.71
2018-09-15T13:29:09.222Z,43.03
2018-09-15T13:31:39.075Z,43.21
2018-09-15T13:34:08.766Z,43.34
2018-09-15T13:36:38.610Z,43.96
2018-09-15T13:39:11.032Z,44.70
2018-09-15T13:41:40.821Z,42.43
2018-09-15T13:44:11.327Z,41.96
2018-09-15T13:46:41.255Z,41.81
2018-09-15T13:49:11.013Z,43.87
2018-09-15T13:51:40.751Z,43.84
2018-09-15T13:54:10.478Z,42.12
2018-09-15T13:56:40.287Z,42.41
2018-09-15T13:59:10.311Z,42.64
2018-09-15T14:01:40.111Z,42.14
2018-09-15T14:04:09.858Z,42.35
2018-09-15T14:06:39.573Z,43.01
2018-09-15T14:09:11.015Z,43.81
2018-09-15T14:11:40.853Z,44.08
2018-09-15T14:14:11.735Z,44.00
2018-09-15T14:16:41.616Z,44.42
2018-09-15T14:19:11.323Z,43.78
2018-09-15T14:21:41.074Z,44.06
2018-09-15T14:24:10.807Z,42.37
2018-09-15T14:26:40.601Z,41.65
2018-09-15T14:29:10.317Z,43.42
2018-09-15T14:31:40.081Z,43.58
2018-09-15T14:34:10.023Z,42.61
2018-09-15T14:36:40.557Z,41.85
2018-09-15T14:39:11.677Z,41.50
2018-09-15T14:41:41.637Z,41.27
2018-09-15T14:44:11.426Z,39.67
2018-09-15T14:46:41.094Z,37.04
2018-09-15T14:49:10.905Z,37.20
2018-09-15T14:51:40.618Z,37.15
2018-09-15T14:54:10.331Z,39.81
2018-09-15T14:56:40.190Z,38.64
2018-09-15T14:59:09.908Z,37.25
2018-09-15T15:01:39.636Z,37.18
2018-09-15T15:04:09.309Z,37.27
2018-09-15T15:06:38.992Z,38.26
2018-09-15T15:09:09.858Z,38.04
2018-09-15T15:11:39.818Z,38.87
2018-09-15T15:14:09.937Z,39.25
2018-09-15T15:16:39.778Z,40.43
2018-09-15T15:19:10.054Z,39.26
2018-09-15T15:21:39.928Z,39.89
2018-09-15T15:24:09.824Z,39.74
2018-09-15T15:26:39.553Z,39.47
2018-09-15T15:29:09.377Z,38.73
2018-09-15T15:31:39.111Z,40.34
2018-09-15T15:34:08.870Z,39.24
2018-09-15T15:36:38.635Z,40.31
2018-09-15T15:39:09.663Z,40.61
2018-09-15T15:41:39.511Z,42.38
2018-09-15T15:44:09.246Z,40.29
2018-09-15T15:46:39.070Z,41.29
2018-09-15T15:49:09.096Z,42.99
2018-09-15T15:51:38.786Z,44.37
2018-09-15T15:54:08.515Z,44.67
2018-09-15T15:56:38.207Z,45.20
2018-09-15T15:59:08.057Z,46.96
2018-09-15T16:01:37.916Z,45.33
2018-09-15T16:04:07.700Z,45.04
2018-09-15T16:06:37.547Z,44.75
2018-09-15T16:09:09.438Z,44.52
2018-09-15T16:11:39.459Z,44.71
2018-09-15T16:14:09.268Z,44.94
2018-09-15T16:16:39.147Z,46.17
2018-09-15T16:19:08.845Z,45.88
2018-09-15T16:21:38.537Z,46.40
2018-09-15T16:24:08.329Z,46.14
2018-09-15T16:26:38.236Z,46.94
2018-09-15T16:29:07.950Z,48.34
2018-09-15T16:31:38.033Z,48.13
2018-09-15T16:34:07.813Z,48.59
2018-09-15T16:36:37.618Z,49.10
2018-09-15T16:39:10.802Z,49.89
2018-09-15T16:41:41.445Z,49.88
2018-09-15T16:44:11.315Z,51.54
2018-09-15T16:46:41.019Z,51.29
2018-09-15T16:49:10.812Z,52.59
2018-09-15T16:51:40.702Z,51.64
2018-09-15T16:54:10.412Z,52.05
2018-09-15T16:56:40.261Z,51.66
2018-09-15T16:59:09.957Z,53.11
2018-09-15T17:01:39.687Z,53.03
2018-09-15T17:04:09.365Z,55.14
2018-09-15T17:06:39.116Z,55.05
2018-09-15T17:09:11.840Z,55.90
2018-09-15T17:11:41.709Z,55.81
2018-09-15T17:14:11.361Z,56.60
2018-09-15T17:16:41.210Z,57.69
2018-09-15T17:19:10.799Z,58.29
2018-09-15T17:21:41.232Z,58.85
2018-09-15T17:24:10.900Z,60.16
2018-09-15T17:26:40.777Z,60.33
2018-09-15T17:29:10.442Z,61.17
2018-09-15T17:31:40.127Z,61.34
2018-09-15T17:34:09.865Z,62.39
2018-09-15T17:36:39.780Z,62.90
2018-09-15T17:39:11.918Z,64.00
2018-09-15T17:41:41.763Z,63.22
2018-09-15T17:44:11.458Z,63.76
2018-09-15T17:46:41.210Z,64.62
2018-09-15T17:49:11.038Z,64.73
2018-09-15T17:51:40.939Z,65.39
2018-09-15T17:54:10.878Z,66.22
2018-09-15T17:56:40.532Z,67.90
2018-09-15T17:59:10.306Z,69.12
2018-09-15T18:01:40.124Z,70.06
2018-09-15T18:04:10.060Z,70.87
2018-09-15T18:06:39.867Z,71.93
2018-09-15T18:09:09.777Z,72.19
2018-09-15T18:11:39.619Z,72.55
2018-09-15T18:14:09.376Z,73.53
2018-09-15T18:16:39.134Z,74.06
2018-09-15T18:19:08.825Z,74.12
2018-09-15T18:21:38.688Z,74.52
2018-09-15T18:24:08.506Z,75.03
2018-09-15T18:26:38.253Z,75.87
2018-09-15T18:29:08.186Z,76.60
2018-09-15T18:31:37.908Z,77.70
2018-09-15T18:34:07.790Z,77.39
2018-09-15T18:36:37.763Z,77.80
2018-09-15T18:39:10.442Z,78.46
2018-09-15T18:41:40.497Z,79.12
2018-09-15T18:44:10.192Z,79.33
2018-09-15T18:46:40.002Z,78.88
2018-09-15T18:49:09.744Z,79.07
2018-09-15T18:51:39.495Z,80.55
2018-09-15T18:54:09.266Z,80.27
2018-09-15T18:56:39.260Z,80.57
2018-09-15T18:59:08.941Z,80.83
2018-09-15T19:01:38.844Z,81.53
2018-09-15T19:04:08.757Z,81.88
2018-09-15T19:06:38.740Z,82.19
2018-09-15T19:09:11.249Z,82.73
2018-09-15T19:11:41.480Z,82.91
2018-09-15T19:14:11.224Z,83.21
2018-09-15T19:16:41.055Z,83.56
2018-09-15T19:19:10.752Z,83.72
2018-09-15T19:21:40.468Z,84.65
2018-09-15T19:24:10.293Z,83.67
2018-09-15T19:26:40.090Z,84.22
2018-09-15T19:29:09.865Z,84.48
2018-09-15T19:31:40.763Z,83.94
2018-09-15T19:34:10.773Z,83.87
2018-09-15T19:36:40.571Z,83.52
2018-09-15T19:39:12.893Z,82.37
2018-09-15T19:41:42.658Z,82.70
2018-09-15T19:44:12.374Z,82.93
2018-09-15T19:46:42.199Z,83.03
2018-09-15T19:49:12.189Z,82.96
2018-09-15T19:51:41.918Z,83.41
2018-09-15T19:54:11.699Z,83.98
2018-09-15T19:56:41.586Z,83.95
2018-09-15T19:59:11.370Z,84.29
2018-09-15T20:01:41.178Z,84.83
2018-09-15T20:04:11.093Z,85.03
2018-09-15T20:06:40.794Z,85.21
2018-09-15T20:09:11.698Z,85.99
2018-09-15T20:11:41.548Z,85.21
2018-09-15T20:14:11.277Z,85.25
2018-09-15T20:16:39.142Z,85.40
2018-09-15T20:19:07.012Z,85.81
2018-09-15T20:21:34.848Z,86.17
2018-09-15T20:24:04.593Z,87.09
2018-09-15T20:26:34.430Z,87.28
2018-09-15T20:29:04.205Z,87.52
2018-09-15T20:31:34.113Z,88.58
2018-09-15T20:34:04.436Z,88.02
2018-09-15T20:36:34.270Z,88.65
2018-09-15T20:39:05.484Z,87.78
2018-09-15T20:41:36.241Z,88.56
2018-09-15T20:44:08.045Z,89.12
2018-09-15T20:46:39.447Z,89.25
2018-09-15T20:49:09.850Z,89.75
2018-09-15T20:54:17.253Z,91.12
2018-09-15T20:59:14.179Z,92.12
2018-09-15T21:01:44.576Z,92.33
2018-09-15T21:04:15.431Z,93.25
2018-09-15T21:06:45.666Z,93.49
2018-09-15T21:09:17.315Z,93.80
2018-09-15T21:11:47.123Z,94.49
2018-09-15T21:14:16.894Z,94.67
2018-09-15T21:16:46.750Z,95.15
2018-09-15T21:19:16.697Z,95.89
2018-09-15T21:21:46.622Z,96.93
2018-09-15T21:24:16.422Z,97.04
2018-09-15T21:26:46.419Z,97.68
2018-09-15T21:29:16.093Z,97.83
2018-09-15T21:31:45.908Z,98.01
2018-09-15T21:34:15.799Z,98.52
2018-09-15T21:36:45.580Z,98.30
2018-09-15T21:39:15.505Z,98.92
2018-09-15T21:41:45.280Z,99.35
2018-09-15T21:44:15.118Z,99.57
2018-09-15T21:46:45.122Z,99.89
2018-09-15T21:49:14.864Z,100.00
2018-09-15T21:51:44.583Z,100.00
2018-09-15T21:54:15.201Z,100.00
2018-09-15T21:56:44.925Z,100.00
2018-09-15T21:59:14.759Z,100.00
2018-09-15T22:01:44.607Z,100.00
2018-09-15T22:04:21.786Z,100.00
2018-09-15T22:06:53.071Z,100.00
2018-09-15T22:09:22.822Z,100.00
2018-09-15T22:11:52.604Z,100.00
2018-09-15T22:14:23.174Z,100.00
2018-09-15T22:16:52.905Z,100.00
2018-09-15T22:19:22.955Z,100.00
2018-09-15T22:21:52.752Z,100.00
2018-09-15T22:24:22.836Z,100.00
2018-09-15T22:26:52.657Z,100.00
2018-09-15T22:29:22.466Z,100.00
2018-09-15T22:31:52.306Z,100.00
2018-09-15T22:34:22.244Z,100.00
2018-09-15T22:36:52.478Z,100.00
2018-09-15T22:39:22.117Z,100.00
2018-09-15T22:41:51.805Z,100.00
2018-09-15T22:44:23.333Z,100.00
2018-09-15T22:46:53.434Z,100.00
2018-09-15T22:49:25.126Z,100.00
2018-09-15T22:51:54.951Z,100.00
2018-09-15T22:54:24.857Z,100.00
2018-09-15T22:56:55.901Z,100.00
2018-09-15T22:59:26.192Z,100.00
2018-09-15T23:01:55.905Z,100.00
2018-09-15T23:04:25.919Z,100.00
2018-09-15T23:06:55.649Z,100.00
2018-09-15T23:09:25.569Z,100.00
2018-09-15T23:11:55.309Z,100.00
2018-09-15T23:14:25.030Z,100.00
2018-09-15T23:16:54.772Z,100.00
2018-09-15T23:19:25.227Z,100.00
2018-09-15T23:21:55.315Z,100.00
2018-09-15T23:24:24.961Z,100.00
2018-09-15T23:26:54.955Z,100.00
2018-09-15T23:29:25.661Z,100.00
2018-09-15T23:31:55.444Z,100.00
2018-09-15T23:34:25.709Z,100.00
2018-09-15T23:36:55.503Z,100.00
2018-09-15T23:39:25.399Z,100.00
2018-09-15T23:41:55.361Z,100.00
2018-09-15T23:44:25.092Z,100.00
2018-09-15T23:46:54.805Z,100.00
2018-09-15T23:49:24.706Z,100.00
2018-09-15T23:51:54.359Z,100.00
2018-09-15T23:54:24.005Z,100.00
2018-09-15T23:56:53.687Z,100.00
2018-09-15T23:59:23.373Z,100.00
